Airfield :
LOGIN :

Register | Disclaimer

   EN    FR    IT 

 










Legend :    VFR   Marginal VFR   IFR   Intensive IFR   Very Intensive IFR
Visi :
Ceiling :
>= 8 km
>= 3000ft
5 to 8 km
1000 to 3000 ft
1500m to 5 km
500 to 1000 ft
800 to 1500m
200 to 500 ft
< 800m
< 200 ft
Symbols :   Thunderstorms  Fog  Heavy snow  Heavy precipitations  Wind > 20 kt
SIGMETs :     Misc.  Thunderstorms  Icing  Turbulence  Mountain Waves  Volcanic Ashes






- Airport Elevation : 0 ft


ETEB - Ansbach Army Heliport

CURRENT METAR :
  • 221556Z AUTO 23012KT 9999 SCT130 11/M03 A3021 RMK AO2 SLP257 T01101031 $

EXPIRED METARs :
  • 221456Z AUTO 23012G17KT 9999 OVC150 11/M03 A3022 RMK AO2 SLP261 T01131032 58012 $
  • 221356Z AUTO 22013G22KT 9999 FEW160 12/M04 A3023 RMK AO2 SLP262 T01171037 $

TAF COR TAF ETEB
Valid from the 21 at 14:00 until the 22 at 20:00 UTC


211455Z 2114/2220 27015G20KT 9999 FEW035 QNH3035INS
BECMG 2116/2117 26009KT 9999 SCT020 BKN080 QNH3030INS
BECMG 2204/2205 22009KT 9999 FEW015 SCT025 QNH3023INS
BECMG 2212/2213 24015G25KT 9999 FEW030 QNH3022INS
BECMG 2215/2216 26015G25KT 9999 BKN120 QNH3021INS TX07/2116Z TN01/2123Z LAST NO AMDS AFT 2117 NEXT 2322



MET'MAP, your aeronautical weather chart ! - Copyright ORBIFLY December 2007 - Disclaimer

ORBIFLY MET'MAP TEAM :

Programming & Development : Alexandra Zaïnal
Concept & original design : Baudouin d'Aumeries
Assistance for programming : Marc-Olivier Méhu
Technical & hardware support : Manuel Goepfert

Contact : metmap@orbifly.com




SOURCES & CREDITS :

   NOAA